Time;durP1;ratioP1;P1;durP2;ratioP2;P2;SDS_P1;SDS_P2;PMS_P1;PMS_P2;Temp;Humidity;BMP_temperature;BMP_pressure;BME280_temperature;BME280_humidity;BME280_pressure;Samples;Min_cycle;Max_cycle;Signal;HPM_P1;HPM_P2
2022/11/17 00:02:24;;;;;;;;;11.00;8.00;;;;;13.37;76.34;98222.06;4977903;28;45245;-73
2022/11/17 00:04:53;;;;;;;;;10.00;7.67;;;;;13.18;76.44;98191.09;4977426;28;45468;-70
2022/11/17 00:07:29;;;;;;;;;8.33;4.33;;;;;13.43;76.02;98209.72;4977984;28;45578;-72
2022/11/17 00:09:55;;;;;;;;;11.00;6.00;;;;;13.43;75.71;98214.22;4978153;28;46217;-72
2022/11/17 00:15:43;;;;;;;;;6.00;4.00;;;;;13.38;75.32;98210.34;4978404;28;45413;-71
2022/11/17 00:21:20;;;;;;;;;9.67;5.00;;;;;13.25;74.43;98197.19;4977478;28;45263;-71
2022/11/17 00:23:50;;;;;;;;;6.33;4.67;;;;;13.00;74.51;98140.38;4977504;28;45557;-72
2022/11/17 00:26:27;;;;;;;;;9.67;6.33;;;;;11.08;74.05;97849.38;4977529;28;45224;-71
2022/11/17 00:29:09;;;;;;;;;10.67;6.33;;;;;13.42;74.15;98213.41;4979028;28;45227;-70
2022/11/17 00:35:07;;;;;;;;;;;;;;;;;;;;;
2022/11/17 00:37:36;;;;;;;;;11.67;6.67;;;;;13.46;74.01;98248.47;4979577;28;70547;-70
2022/11/17 00:40:14;;;;;;;;;5.00;3.67;;;;;13.08;74.39;98180.13;4980934;28;45143;-71
2022/11/17 00:42:46;;;;;;;;;11.33;6.00;;;;;13.49;74.09;98238.16;4996286;28;48130;-70
2022/11/17 00:45:21;;;;;;;;;8.00;5.00;;;;;13.22;73.90;98199.50;4980418;28;45530;-71
2022/11/17 00:48:02;;;;;;;;;4.67;3.33;;;;;12.67;73.13;98090.13;4980917;28;45255;-74
2022/11/17 00:50:38;;;;;;;;;4.33;2.00;;;;;13.33;72.95;98217.41;4979474;28;45685;-71
2022/11/17 00:53:13;;;;;;;;;8.00;4.00;;;;;13.48;72.97;98233.06;4980432;28;45724;-70
2022/11/17 00:55:55;;;;;;;;;10.00;3.33;;;;;13.40;72.22;98216.28;4979038;28;45378;-69
2022/11/17 00:58:23;;;;;;;;;6.33;3.00;;;;;13.43;72.17;98233.72;4980589;28;45381;-71
2022/11/17 01:00:59;;;;;;;;;5.33;4.00;;;;;13.54;72.01;98242.81;4995679;28;45283;-70
2022/11/17 01:03:32;;;;;;;;;5.33;4.67;;;;;13.29;71.98;98197.56;4994839;28;46746;-70
2022/11/17 01:06:19;;;;;;;;;3.00;3.00;;;;;13.46;70.96;98235.94;4980544;28;45582;-71
2022/11/17 01:08:53;;;;;;;;;3.00;1.67;;;;;12.87;71.06;98133.38;4980201;28;45293;-69
2022/11/17 01:11:25;;;;;;;;;8.00;4.00;;;;;13.30;70.48;98215.19;4978906;28;45611;-70
2022/11/17 01:14:14;;;;;;;;;3.00;2.00;;;;;13.43;70.39;98240.91;4979838;28;46667;-72
2022/11/17 01:16:51;;;;;;;;;7.00;4.50;;;;;13.46;70.68;98251.97;4980341;28;45373;-70
2022/11/17 01:19:29;;;;;;;;;3.67;3.67;;;;;13.34;70.92;98211.03;4980479;28;45240;-70
2022/11/17 01:21:55;;;;;;;;;6.67;5.67;;;;;13.43;69.96;98241.72;4980962;28;45538;-71
2022/11/17 01:24:24;;;;;;;;;3.67;2.00;;;;;13.46;70.22;98253.81;4980123;28;46318;-71
2022/11/17 01:27:00;;;;;;;;;3.67;3.00;;;;;12.32;70.46;98090.66;4994946;28;45316;-71
2022/11/17 01:29:56;;;;;;;;;6.00;4.00;;;;;13.41;70.18;98254.47;4979896;28;45290;-70
2022/11/17 01:32:31;;;;;;;;;2.67;2.33;;;;;13.38;70.11;98266.41;4980113;28;45312;-71
2022/11/17 01:35:08;;;;;;;;;5.67;4.00;;;;;12.19;69.90;98058.81;4979618;28;46076;-71
2022/11/17 01:37:51;;;;;;;;;3.00;1.00;;;;;13.46;69.70;98283.16;4994790;28;45254;-70
2022/11/17 01:40:32;;;;;;;;;3.00;2.00;;;;;13.23;69.43;98257.16;4979556;28;45321;-69
2022/11/17 01:43:39;;;;;;;;;4.25;1.75;;;;;13.31;69.15;98272.84;4979826;28;45481;-70
2022/11/17 01:46:36;;;;;;;;;3.00;2.00;;;;;12.90;69.12;98207.59;4971660;28;47321;-70
2022/11/17 01:49:15;;;;;;;;;8.00;2.67;;;;;13.50;68.75;98306.53;4950568;28;46000;-72
2022/11/17 01:51:51;;;;;;;;;8.00;1.67;;;;;13.28;69.51;98289.31;4960315;28;45348;-70
2022/11/17 01:54:53;;;;;;;;;1.25;1.25;;;;;13.49;69.14;98309.41;4975211;28;45670;-71
2022/11/17 01:58:09;;;;;;;;;2.00;1.00;;;;;13.50;69.55;98324.38;4950696;28;47419;-70
2022/11/17 02:01:04;;;;;;;;;3.25;1.50;;;;;12.99;69.22;98224.91;4962252;28;45277;-70
2022/11/17 02:03:39;;;;;;;;;8.67;3.00;;;;;13.42;68.95;98300.69;4960815;28;45791;-71
2022/11/17 02:06:13;;;;;;;;;1.00;1.00;;;;;13.49;68.91;98309.41;4960226;28;45175;-69
2022/11/17 02:09:06;;;;;;;;;;;;;;;;;;;;;
2022/11/17 02:11:42;;;;;;;;;4.67;0.67;;;;;12.76;68.42;98195.41;4958576;28;74470;-71
2022/11/17 02:14:10;;;;;;;;;3.00;1.00;;;;;13.33;68.44;98300.13;4969504;28;45496;-69
2022/11/17 02:16:44;;;;;;;;;2.67;2.67;;;;;13.32;68.81;98310.00;4979332;28;45630;-70
2022/11/17 02:19:19;;;;;;;;;3.00;3.00;;;;;13.34;68.68;98304.44;4976838;28;47154;-70
2022/11/17 02:22:26;;;;;;;;;4.00;1.67;;;;;13.50;68.71;98345.75;4979132;28;45502;-72
2022/11/17 02:25:18;;;;;;;;;3.00;2.00;;;;;13.49;68.52;98341.44;4979049;28;45495;-71
2022/11/17 02:28:13;;;;;;;;;2.00;1.00;;;;;13.45;68.26;98330.41;4979337;28;45492;-69
2022/11/17 02:31:18;;;;;;;;;2.00;2.00;;;;;13.46;68.22;98334.69;4978975;28;45652;-69
2022/11/17 02:34:21;;;;;;;;;1.00;1.00;;;;;13.47;68.52;98341.66;4979278;28;45204;-70
2022/11/17 02:37:32;;;;;;;;;3.67;2.00;;;;;13.29;68.20;98309.63;4978901;28;45600;-70
2022/11/17 02:40:09;;;;;;;;;2.67;0.00;;;;;12.59;67.75;98186.34;4939124;28;45477;-72
2022/11/17 02:46:12;;;;;;;;;2.67;2.67;;;;;13.25;67.33;98327.94;4959271;28;45542;-70
2022/11/17 02:49:06;;;;;;;;;0.33;0.33;;;;;13.35;66.82;98351.44;4974991;28;45410;-71
2022/11/17 02:51:54;;;;;;;;;3.00;1.00;;;;;13.32;67.65;98351.88;4974022;28;45632;-70
2022/11/17 02:54:31;;;;;;;;;4.00;1.67;;;;;13.17;67.41;98340.69;4957782;28;48593;-70
2022/11/17 02:57:29;;;;;;;;;1.00;1.00;;;;;13.24;67.83;98347.66;4959669;28;45299;-70
2022/11/17 03:00:14;;;;;;;;;1.67;1.00;;;;;12.64;67.30;98258.50;4957066;28;45486;-71
2022/11/17 03:03:18;;;;;;;;;0.33;0.00;;;;;13.31;67.46;98364.41;4974251;28;45521;-71
2022/11/17 03:09:01;;;;;;;;;1.00;1.00;;;;;13.35;67.59;98373.59;4958571;28;45472;-69
2022/11/17 03:11:50;;;;;;;;;1.00;1.00;;;;;13.13;67.43;98348.31;4958743;28;45449;-69
2022/11/17 03:14:45;;;;;;;;;1.00;1.00;;;;;13.28;67.24;98372.84;4969567;28;45533;-70
2022/11/17 03:17:50;;;;;;;;;0.00;0.00;;;;;13.31;67.29;98399.09;4978299;28;46286;-71
2022/11/17 03:20:41;;;;;;;;;2.00;1.00;;;;;13.26;67.03;98388.25;4975585;28;45475;-70
2022/11/17 03:23:17;;;;;;;;;1.33;1.00;;;;;13.28;67.32;98426.22;4977204;28;45272;-71
2022/11/17 03:26:00;;;;;;;;;;;;;;;;;;;;;
2022/11/17 03:29:04;;;;;;;;;2.00;2.00;;;;;13.37;67.86;98445.44;4976968;28;75845;-70
2022/11/17 03:31:49;;;;;;;;;2.00;0.00;;;;;13.34;67.43;98440.53;4977987;28;45572;-70
2022/11/17 03:34:35;;;;;;;;;1.50;1.00;;;;;13.35;67.66;98448.31;4978047;28;45349;-70
2022/11/17 03:37:19;;;;;;;;;2.00;1.00;;;;;13.22;66.81;98428.94;4978110;28;45268;-70
2022/11/17 03:40:04;;;;;;;;;1.67;1.33;;;;;12.69;66.74;98334.09;4977836;28;45554;-71
2022/11/17 03:42:54;;;;;;;;;;;;;;;;;;;;;
2022/11/17 03:46:02;;;;;;;;;1.00;0.67;;;;;13.47;66.33;98464.44;4958123;28;71051;-69
2022/11/17 03:48:57;;;;;;;;;1.00;0.00;;;;;13.43;66.91;98471.28;4948242;28;45312;-71
2022/11/17 03:51:32;;;;;;;;;2.25;1.00;;;;;12.81;66.44;98371.53;4958039;28;46818;-71
2022/11/17 03:54:08;;;;;;;;;1.00;1.00;;;;;13.14;65.80;98434.50;4958862;28;45344;-69
2022/11/17 03:56:41;;;;;;;;;1.50;0.00;;;;;13.46;65.98;98475.34;4974192;28;45430;-69
2022/11/17 03:59:16;;;;;;;;;0.00;0.00;;;;;13.47;65.55;98483.13;4958833;28;45339;-69
2022/11/17 04:01:45;;;;;;;;;1.00;0.00;;;;;12.62;65.06;98345.88;4972756;28;45790;-69
2022/11/17 04:04:31;;;;;;;;;;;;;;;;;;;;;
2022/11/17 04:07:42;;;;;;;;;2.75;0.00;;;;;13.42;65.58;98523.03;4957087;28;70742;-71
2022/11/17 04:10:15;;;;;;;;;0.00;0.00;;;;;13.40;65.36;98525.88;4957696;28;45255;-71
2022/11/17 04:18:19;;;;;;;;;1.00;0.00;;;;;13.29;65.27;98518.59;4977628;28;45514;-72
2022/11/17 04:21:11;;;;;;;;;1.67;1.00;;;;;13.43;65.72;98545.19;4992822;28;45486;-71
2022/11/17 04:23:51;;;;;;;;;0.00;0.00;;;;;13.32;65.61;98525.34;4954388;28;45622;-69
2022/11/17 04:29:10;;;;;;;;;0.00;0.00;;;;;12.62;66.62;98423.16;4977390;28;45390;-69
2022/11/17 04:31:57;;;;;;;;;0.00;0.00;;;;;13.29;67.47;98541.78;4992534;28;45546;-69
2022/11/17 04:34:51;;;;;;;;;0.67;0.00;;;;;13.24;68.67;98541.63;4977196;28;46566;-71
2022/11/17 04:37:28;;;;;;;;;0.67;0.67;;;;;13.18;69.74;98555.78;4976740;28;45311;-71
2022/11/17 04:40:01;;;;;;;;;0.00;0.00;;;;;12.92;70.55;98530.88;4977304;28;45237;-70
2022/11/17 04:42:45;;;;;;;;;1.00;1.00;;;;;13.16;70.32;98571.97;4977182;28;45383;-70
2022/11/17 04:45:34;;;;;;;;;2.00;1.00;;;;;13.19;70.34;98576.09;4976761;28;46733;-71
2022/11/17 04:48:15;;;;;;;;;0.33;0.00;;;;;11.87;69.94;98374.91;4977134;28;45436;-71
2022/11/17 04:50:53;;;;;;;;;0.00;0.00;;;;;12.30;69.54;98441.75;4977438;28;45476;-69
2022/11/17 04:54:02;;;;;;;;;0.00;0.00;;;;;13.12;69.38;98581.44;4978180;28;45704;-68
2022/11/17 04:56:47;;;;;;;;;0.00;0.00;;;;;12.80;69.16;98527.22;4976455;28;45969;-71
2022/11/17 05:00:08;;;;;;;;;0.33;0.33;;;;;13.18;68.51;98598.47;4991869;28;45512;-70
2022/11/17 05:06:02;;;;;;;;;0.33;0.00;;;;;13.22;68.31;98600.53;4977181;28;45484;-68
2022/11/17 05:08:31;;;;;;;;;1.67;0.67;;;;;12.72;67.45;98530.16;4937940;28;45574;-70
2022/11/17 05:13:44;;;;;;;;;0.00;0.00;;;;;13.15;67.38;98601.53;4955403;28;45672;-70
2022/11/17 05:19:19;;;;;;;;;0.75;0.75;;;;;13.25;67.37;98618.78;4958231;28;45975;-71
2022/11/17 05:21:59;;;;;;;;;1.00;1.00;;;;;13.32;66.93;98634.75;4958348;28;45643;-70
2022/11/17 05:24:36;;;;;;;;;1.00;1.00;;;;;12.49;66.57;98498.66;4958023;28;45534;-69
2022/11/17 05:27:36;;;;;;;;;0.00;0.00;;;;;13.33;66.57;98641.72;4958655;28;45287;-71
2022/11/17 05:30:12;;;;;;;;;1.00;1.00;;;;;13.20;66.38;98626.59;4951747;28;47098;-70
2022/11/17 05:32:50;;;;;;;;;1.00;1.00;;;;;13.13;67.07;98609.75;4958271;28;45359;-70
2022/11/17 05:38:50;;;;;;;;;1.25;1.25;;;;;13.29;66.84;98649.34;4931818;28;45457;-70
2022/11/17 05:41:36;;;;;;;;;4.00;0.00;;;;;13.00;67.09;98618.63;4962717;28;46736;-71
2022/11/17 05:44:05;;;;;;;;;1.00;1.00;;;;;13.16;66.63;98651.22;4960300;28;45183;-70
2022/11/17 05:46:41;;;;;;;;;1.00;1.00;;;;;12.70;66.78;98591.69;4960499;28;45461;-70
2022/11/17 05:49:16;;;;;;;;;0.00;0.00;;;;;12.92;67.01;98640.22;4975312;28;45420;-69
2022/11/17 05:51:48;;;;;;;;;1.00;1.00;;;;;11.79;66.86;98453.16;4959906;28;46421;-70
2022/11/17 05:54:17;;;;;;;;;1.00;0.00;;;;;13.13;67.18;98667.63;4959929;28;45486;-70
2022/11/17 06:00:09;;;;;;;;;;;;;;;;;;;;;
2022/11/17 06:03:01;;;;;;;;;1.00;0.00;;;;;12.78;66.82;98643.94;4958823;28;76862;-70
2022/11/17 06:05:34;;;;;;;;;1.00;0.00;;;;;12.45;67.02;98596.88;4959714;28;45358;-70
2022/11/17 06:08:21;;;;;;;;;3.00;1.33;;;;;12.34;66.73;98594.84;4959869;28;45388;-71
2022/11/17 06:10:52;;;;;;;;;1.67;0.00;;;;;12.91;66.43;98691.09;4975022;28;45589;-69
2022/11/17 06:13:24;;;;;;;;;0.00;0.00;;;;;12.51;66.84;98637.03;4959415;28;46451;-71
2022/11/17 06:15:59;;;;;;;;;1.00;1.00;;;;;12.49;66.27;98626.59;4962724;28;45324;-70
2022/11/17 06:18:54;;;;;;;;;0.00;0.00;;;;;12.07;66.36;98590.56;4975398;28;45465;-71
2022/11/17 06:21:33;;;;;;;;;1.00;1.00;;;;;12.88;65.78;98702.19;4979185;28;45376;-71
2022/11/17 06:24:28;;;;;;;;;2.33;2.33;;;;;12.58;64.85;98649.31;4974951;28;47171;-71
2022/11/17 06:26:59;;;;;;;;;3.00;1.00;;;;;11.56;64.98;98479.34;4977525;28;45531;-70
2022/11/17 06:29:58;;;;;;;;;0.00;0.00;;;;;12.85;65.23;98697.28;4980115;28;45407;-69
2022/11/17 06:33:05;;;;;;;;;1.33;0.33;;;;;12.78;65.15;98692.75;4994835;28;45358;-70
2022/11/17 06:36:13;;;;;;;;;0.00;0.00;;;;;12.73;65.71;98705.09;4979118;28;45724;-70
2022/11/17 06:38:46;;;;;;;;;2.25;1.75;;;;;12.74;65.55;98690.72;4977915;28;45552;-70
2022/11/17 06:41:18;;;;;;;;;1.00;1.00;;;;;12.63;65.47;98689.53;4977902;28;45386;-71
2022/11/17 06:44:12;;;;;;;;;0.33;0.33;;;;;12.65;65.96;98713.31;4984602;28;45594;-70
2022/11/17 06:47:04;;;;;;;;;3.75;2.00;;;;;12.56;66.69;98693.22;4959113;28;45590;-71
2022/11/17 06:49:51;;;;;;;;;0.33;0.00;;;;;12.47;66.35;98689.94;4973514;28;45493;-69
2022/11/17 06:52:30;;;;;;;;;0.33;0.33;;;;;12.47;67.10;98680.09;4959013;28;45496;-70
2022/11/17 06:55:22;;;;;;;;;1.00;1.00;;;;;12.38;66.80;98670.66;4958271;28;45308;-73
2022/11/17 07:01:22;;;;;;;;;1.00;0.00;;;;;12.56;67.29;98730.53;4961835;28;45607;-70
2022/11/17 07:04:05;;;;;;;;;6.00;1.00;;;;;12.54;67.29;98721.91;4978663;28;45467;-70
2022/11/17 07:06:39;;;;;;;;;2.00;0.67;;;;;12.30;67.46;98694.03;4978409;28;45251;-70
2022/11/17 07:09:05;;;;;;;;;4.00;0.67;;;;;11.96;67.96;98644.44;4977910;28;45338;-70
2022/11/17 07:11:47;;;;;;;;;0.00;0.00;;;;;11.81;67.96;98620.66;4977254;28;45249;-70
2022/11/17 07:14:30;;;;;;;;;4.67;1.33;;;;;11.81;68.50;98642.81;4977883;28;45381;-70
2022/11/17 07:21:18;;;;;;;;;0.50;0.50;;;;;12.34;68.60;98733.41;4956619;28;46323;-70
2022/11/17 07:24:42;;;;;;;;;5.00;2.75;;;;;12.31;68.44;98725.81;4962379;28;45346;-72
2022/11/17 07:27:35;;;;;;;;;1.33;1.33;;;;;12.26;68.72;98724.78;4961225;28;45471;-75
2022/11/17 07:30:24;;;;;;;;;1.00;1.00;;;;;12.21;68.39;98712.06;4975119;28;45528;-73
2022/11/17 07:33:22;;;;;;;;;2.00;2.00;;;;;12.10;68.66;98683.38;4975285;28;46540;-71
2022/11/17 07:36:16;;;;;;;;;3.33;1.00;;;;;12.38;68.32;98728.47;4975404;28;45530;-70
2022/11/17 07:39:00;;;;;;;;;4.33;2.00;;;;;12.35;68.13;98729.69;4976791;28;45388;-70
2022/11/17 07:42:52;;;;;;;;;3.00;3.00;;;;;12.54;67.97;98752.06;4998586;28;45453;-71
2022/11/17 07:46:06;;;;;;;;;6.00;2.00;;;;;12.67;67.85;98770.72;4992482;28;45340;-71
2022/11/17 07:48:47;;;;;;;;;1.00;1.00;;;;;12.76;67.86;98768.66;4975402;28;45556;-70
2022/11/17 07:51:28;;;;;;;;;2.67;1.00;;;;;12.80;67.39;98770.69;4937142;28;45598;-71
2022/11/17 07:54:02;;;;;;;;;2.67;2.00;;;;;12.79;67.38;98757.56;4968433;28;45603;-71
2022/11/17 07:56:34;;;;;;;;;2.00;1.00;;;;;12.29;67.61;98677.25;4977514;28;46644;-71
2022/11/17 07:59:32;;;;;;;;;3.00;1.00;;;;;12.97;67.37;98781.75;4977129;28;45452;-71
2022/11/17 08:02:28;;;;;;;;;3.00;3.00;;;;;13.02;67.47;98781.16;4977769;28;45388;-70
2022/11/17 08:05:07;;;;;;;;;11.00;5.67;;;;;12.91;67.63;98769.25;4977585;28;45713;-72
2022/11/17 08:07:45;;;;;;;;;4.00;3.00;;;;;12.99;68.47;98779.72;4977191;28;45792;-70
2022/11/17 08:10:16;;;;;;;;;1.67;1.67;;;;;13.00;69.28;98792.00;4977928;28;45339;-71
2022/11/17 08:13:15;;;;;;;;;3.00;1.00;;;;;13.02;70.00;98792.66;4976668;28;45793;-70
2022/11/17 08:15:58;;;;;;;;;3.33;3.33;;;;;12.78;70.25;98767.41;4965378;28;45742;-71
2022/11/17 08:18:33;;;;;;;;;1.00;1.00;;;;;13.02;70.10;98794.50;4976180;28;45793;-70
2022/11/17 08:21:22;;;;;;;;;2.00;2.00;;;;;13.04;69.85;98795.94;4977233;28;45370;-70
2022/11/17 08:24:05;;;;;;;;;1.00;1.00;;;;;12.59;69.15;98714.13;4967215;28;45549;-70
2022/11/17 08:27:13;;;;;;;;;6.67;4.33;;;;;13.10;69.26;98789.75;4958949;28;45327;-70
2022/11/17 08:30:08;;;;;;;;;3.67;3.00;;;;;12.34;68.86;98668.63;4958896;28;46411;-72
2022/11/17 08:33:14;;;;;;;;;1.00;1.00;;;;;13.20;68.75;98789.34;4966873;28;45485;-71
2022/11/17 08:36:12;;;;;;;;;3.67;2.33;;;;;13.14;68.67;98784.81;4973633;28;45300;-71
2022/11/17 08:39:16;;;;;;;;;1.00;1.00;;;;;13.24;68.42;98787.09;4972505;28;45635;-72
2022/11/17 08:42:08;;;;;;;;;2.75;0.75;;;;;13.24;68.12;98787.09;4971906;28;45907;-71
2022/11/17 08:44:37;;;;;;;;;4.67;3.00;;;;;12.78;67.92;98713.28;4978072;28;45833;-71
2022/11/17 08:47:59;;;;;;;;;2.00;2.00;;;;;13.35;67.82;98786.44;4958735;28;45543;-72
2022/11/17 08:50:46;;;;;;;;;0.67;0.00;;;;;13.36;67.55;98802.25;4957769;28;45685;-72
2022/11/17 08:53:40;;;;;;;;;3.00;1.00;;;;;13.38;67.76;98788.69;4978573;28;47255;-71
2022/11/17 08:56:32;;;;;;;;;4.00;1.00;;;;;13.40;67.25;98791.97;4979677;28;45541;-73
2022/11/17 08:59:26;;;;;;;;;4.00;2.67;;;;;13.93;66.53;98799.78;4969601;28;45481;-73
2022/11/17 09:02:00;;;;;;;;;2.75;2.00;;;;;13.96;65.97;98789.50;5001076;28;45586;-72
2022/11/17 09:04:38;;;;;;;;;5.00;3.33;;;;;13.92;65.79;98790.13;5000055;28;45703;-73
2022/11/17 09:07:19;;;;;;;;;4.00;2.00;;;;;12.67;65.48;98593.94;4989459;28;45469;-71
2022/11/17 09:10:10;;;;;;;;;3.00;3.00;;;;;13.86;66.18;98788.31;4977122;28;45498;-72
2022/11/17 09:13:00;;;;;;;;;3.00;2.00;;;;;13.84;65.82;98787.72;4979950;28;45213;-72
2022/11/17 09:16:00;;;;;;;;;6.33;3.67;;;;;13.52;66.04;98752.94;4994218;28;46237;-75
2022/11/17 09:18:26;;;;;;;;;6.33;3.67;;;;;13.85;66.42;98805.38;4977809;28;45377;-71
2022/11/17 09:24:18;;;;;;;;;4.33;2.00;;;;;13.75;67.05;98805.81;4979580;28;45551;-73
2022/11/17 09:26:47;;;;;;;;;4.67;2.33;;;;;13.55;67.59;98762.34;4977506;28;48406;-72
2022/11/17 09:29:40;;;;;;;;;2.00;1.00;;;;;13.44;68.08;98771.84;4975109;28;45507;-72
2022/11/17 09:32:20;;;;;;;;;5.00;2.33;;;;;13.58;68.42;98810.81;4993575;28;45622;-74
2022/11/17 09:35:10;;;;;;;;;3.00;2.00;;;;;13.51;68.08;98804.69;4992203;28;45365;-70
2022/11/17 09:38:06;;;;;;;;;1.00;1.00;;;;;13.52;68.14;98802.81;4979264;28;45869;-72
2022/11/17 09:40:59;;;;;;;;;;;;;;;;;;;;;
2022/11/17 09:44:19;;;;;;;;;2.00;0.00;;;;;13.46;69.25;98833.88;4977028;28;68880;-74
2022/11/17 09:46:50;;;;;;;;;2.00;1.00;;;;;13.46;69.53;98844.53;4979660;28;45503;-72
2022/11/17 09:49:29;;;;;;;;;3.00;3.00;;;;;13.48;69.77;98845.16;4994452;28;47646;-73
2022/11/17 09:52:00;;;;;;;;;3.00;1.00;;;;;13.54;69.68;98830.13;4979243;28;45213;-71
2022/11/17 09:54:36;;;;;;;;;2.00;2.00;;;;;13.66;70.09;98855.16;4978676;28;45449;-75
2022/11/17 09:57:03;;;;;;;;;3.33;2.00;;;;;13.70;70.00;98825.16;4977247;28;45580;-73
2022/11/17 09:59:31;;;;;;;;;1.00;1.00;;;;;13.43;70.08;98759.53;4991051;28;46726;-73
2022/11/17 10:01:57;;;;;;;;;2.00;2.00;;;;;14.05;70.30;98835.50;4978055;28;45515;-72
2022/11/17 10:04:27;;;;;;;;;3.67;3.00;;;;;13.37;70.37;98715.00;4975317;28;45565;-72
2022/11/17 10:06:53;;;;;;;;;3.00;2.00;;;;;13.23;70.83;98686.75;4978094;28;45607;-72
2022/11/17 10:09:40;;;;;;;;;7.33;4.67;;;;;13.36;70.05;98700.81;4978236;28;46367;-72
2022/11/17 10:12:31;;;;;;;;;6.00;3.00;;;;;14.00;69.70;98812.06;4993051;28;45562;-72
2022/11/17 10:15:15;;;;;;;;;4.00;3.00;;;;;14.08;69.96;98847.63;4978896;28;45289;-74
2022/11/17 10:17:41;;;;;;;;;7.67;4.00;;;;;13.62;69.46;98763.16;4977459;28;45393;-73
2022/11/17 10:20:14;;;;;;;;;7.00;6.00;;;;;13.35;69.59;98706.38;4975854;28;46779;-72
2022/11/17 10:22:40;;;;;;;;;7.67;7.00;;;;;13.85;68.95;98794.69;4978547;28;45452;-73
2022/11/17 10:25:34;;;;;;;;;5.67;5.67;;;;;13.85;68.63;98776.00;4978695;28;45443;-73
2022/11/17 10:27:59;;;;;;;;;6.33;4.00;;;;;14.35;68.26;98848.28;4992887;28;45462;-73
2022/11/17 10:30:25;;;;;;;;;4.00;4.00;;;;;14.08;68.33;98794.16;4976955;28;47301;-74
2022/11/17 10:32:53;;;;;;;;;9.00;6.00;;;;;12.39;68.10;98517.75;4978842;28;45560;-72
2022/11/17 10:35:32;;;;;;;;;5.00;1.33;;;;;14.06;67.58;98770.34;4979658;28;45513;-73
2022/11/17 10:38:08;;;;;;;;;2.00;1.00;;;;;14.50;67.52;98828.28;4979006;28;45533;-74
2022/11/17 10:40:39;;;;;;;;;3.75;1.25;;;;;14.17;67.12;98758.94;4992898;28;46606;-72
2022/11/17 10:43:10;;;;;;;;;3.00;2.67;;;;;14.77;65.96;98836.91;4978904;28;45386;-76
2022/11/17 10:45:45;;;;;;;;;3.75;1.75;;;;;14.64;65.66;98806.81;4978697;28;45299;-75
2022/11/17 10:48:31;;;;;;;;;0.50;0.50;;;;;14.88;65.02;98819.38;4978238;28;45480;-76
2022/11/17 10:51:18;;;;;;;;;3.00;2.25;;;;;14.97;65.36;98834.09;4975953;28;48645;-76
2022/11/17 10:54:19;;;;;;;;;4.25;2.50;;;;;14.21;64.92;98701.34;4978718;28;45516;-76
2022/11/17 10:56:49;;;;;;;;;1.25;0.75;;;;;14.50;64.15;98745.38;4978915;28;45561;-76
2022/11/17 10:59:19;;;;;;;;;2.00;1.75;;;;;14.63;64.13;98763.19;4979444;28;45357;-74
2022/11/17 11:01:49;;;;;;;;;0.75;0.75;;;;;15.16;63.43;98830.41;4977865;28;46236;-74
2022/11/17 11:04:34;;;;;;;;;2.50;0.50;;;;;15.15;63.34;98838.66;4976647;28;46404;-76
2022/11/17 11:07:21;;;;;;;;;2.00;2.00;;;;;15.20;63.39;98841.50;4976676;28;45480;-74
2022/11/17 11:10:13;;;;;;;;;8.33;4.00;;;;;15.25;62.50;98839.00;4978788;28;45294;-77
2022/11/17 11:13:14;;;;;;;;;4.00;1.50;;;;;14.74;62.66;98762.47;4957795;28;46089;-75
2022/11/17 11:15:39;;;;;;;;;3.25;0.75;;;;;14.83;62.72;98793.28;4958726;28;45378;-76
2022/11/17 11:18:12;;;;;;;;;2.50;2.00;;;;;15.11;62.63;98834.81;4958983;28;45438;-74
2022/11/17 11:20:54;;;;;;;;;3.25;3.25;;;;;14.58;62.41;98757.66;4974148;28;45338;-77
2022/11/17 11:23:38;;;;;;;;;2.00;1.25;;;;;14.56;62.35;98744.50;4958843;28;45595;-76
2022/11/17 11:26:34;;;;;;;;;1.25;1.25;;;;;14.18;62.50;98667.03;4966969;28;45465;-75
2022/11/17 11:29:09;;;;;;;;;2.50;2.50;;;;;14.75;62.71;98761.41;4976831;28;45322;-75
2022/11/17 11:31:53;;;;;;;;;2.00;2.00;;;;;15.23;62.51;98825.03;4980483;28;45849;-74
2022/11/17 11:34:40;;;;;;;;;4.75;2.00;;;;;15.32;62.41;98818.31;4978525;28;46068;-75
2022/11/17 11:37:12;;;;;;;;;4.00;4.00;;;;;15.00;61.91;98755.22;4976027;28;45771;-73
2022/11/17 11:43:27;;;;;;;;;1.00;0.50;;;;;15.54;60.16;98816.03;4965800;28;45574;-73
2022/11/17 11:46:01;;;;;;;;;9.67;7.67;;;;;15.64;60.85;98812.88;4958240;28;46558;-73
2022/11/17 11:48:32;;;;;;;;;6.33;5.33;;;;;15.62;60.84;98798.91;4958270;28;45605;-73
2022/11/17 11:51:02;;;;;;;;;2.25;2.25;;;;;15.67;58.47;98820.47;4968024;28;45367;-74
2022/11/17 11:53:36;;;;;;;;;0.25;0.25;;;;;15.67;59.02;98815.94;4977008;28;45572;-72
2022/11/17 11:56:13;;;;;;;;;5.00;2.33;;;;;15.71;58.52;98811.75;4977695;28;46306;-74
2022/11/17 11:58:56;;;;;;;;;3.67;3.00;;;;;15.59;58.14;98805.50;4974416;28;45526;-75
2022/11/17 12:01:23;;;;;;;;;2.00;1.50;;;;;15.56;57.06;98811.28;4973954;28;45561;-74
2022/11/17 12:04:13;;;;;;;;;1.25;1.25;;;;;15.45;57.05;98815.53;4992140;28;46330;-73
2022/11/17 12:06:56;;;;;;;;;0.75;0.75;;;;;15.34;56.78;98785.97;4976295;28;46620;-73
2022/11/17 12:09:34;;;;;;;;;2.33;2.33;;;;;15.55;57.51;98827.56;4976445;28;45590;-74
2022/11/17 12:12:07;;;;;;;;;1.50;1.50;;;;;14.88;56.28;98736.41;4975682;28;45374;-73
2022/11/17 12:14:35;;;;;;;;;1.75;1.00;;;;;15.46;56.22;98825.19;4978315;28;45267;-73
2022/11/17 12:17:24;;;;;;;;;1.25;1.25;;;;;14.57;56.34;98718.59;4992922;28;45370;-75
2022/11/17 12:20:02;;;;;;;;;1.00;1.00;;;;;14.95;56.00;98800.56;4975996;28;45608;-72
2022/11/17 12:22:32;;;;;;;;;2.00;0.75;;;;;15.18;55.92;98832.88;4976357;28;45445;-75
2022/11/17 12:25:04;;;;;;;;;1.25;1.00;;;;;14.48;56.36;98733.28;4981367;28;45478;-72
2022/11/17 12:27:33;;;;;;;;;0.00;0.00;;;;;15.16;56.50;98840.31;4980715;28;48237;-74
2022/11/17 12:29:58;;;;;;;;;1.00;0.00;;;;;15.15;55.98;98822.59;4981243;28;45435;-73
2022/11/17 12:32:57;;;;;;;;;1.50;0.50;;;;;15.27;55.03;98841.47;4979377;28;45620;-72
2022/11/17 12:35:27;;;;;;;;;0.75;0.75;;;;;15.27;55.48;98815.50;4958679;28;45529;-71
2022/11/17 12:38:22;;;;;;;;;0.50;0.50;;;;;15.41;55.20;98833.06;4980265;28;45860;-72
2022/11/17 12:40:52;;;;;;;;;2.00;2.00;;;;;15.50;54.64;98834.41;4971583;28;45582;-70
2022/11/17 12:43:22;;;;;;;;;1.00;0.75;;;;;15.54;54.97;98840.13;4980801;28;45368;-72
2022/11/17 12:45:59;;;;;;;;;1.25;0.25;;;;;15.59;54.42;98834.13;4980927;28;45662;-71
2022/11/17 12:48:34;;;;;;;;;2.00;0.00;;;;;15.63;55.10;98830.00;4980546;28;46942;-71
2022/11/17 12:51:05;;;;;;;;;1.25;1.25;;;;;15.52;54.45;98792.16;4980360;28;45406;-71
2022/11/17 12:53:40;;;;;;;;;1.00;0.25;;;;;15.35;54.25;98769.69;4980584;28;45425;-72
2022/11/17 12:56:29;;;;;;;;;1.75;0.75;;;;;15.60;54.74;98825.06;4980739;28;45398;-72
2022/11/17 12:59:20;;;;;;;;;2.75;0.75;;;;;15.72;54.81;98834.81;4979059;28;48704;-71
2022/11/17 13:02:04;;;;;;;;;0.75;0.75;;;;;15.79;54.97;98827.50;4980151;28;45556;-72
2022/11/17 13:04:44;;;;;;;;;0.00;0.00;;;;;15.85;55.20;98841.91;4996240;28;45586;-72
2022/11/17 13:07:22;;;;;;;;;0.00;0.00;;;;;15.64;55.00;98811.03;4980807;28;45456;-72
2022/11/17 13:09:53;;;;;;;;;0.00;0.00;;;;;15.87;54.97;98839.00;4980119;28;46554;-71
2022/11/17 13:12:26;;;;;;;;;0.00;0.00;;;;;14.03;54.93;98551.69;4978951;28;45745;-73
2022/11/17 13:14:52;;;;;;;;;2.25;0.50;;;;;15.80;55.20;98836.38;4980762;28;45420;-72
2022/11/17 13:17:27;;;;;;;;;1.75;0.25;;;;;15.80;55.36;98841.72;4981154;28;45412;-72
2022/11/17 13:20:16;;;;;;;;;2.00;0.50;;;;;15.60;55.00;98809.00;4980640;28;45834;-70
2022/11/17 13:22:41;;;;;;;;;3.00;1.00;;;;;14.89;55.25;98696.06;4980241;28;45518;-71
2022/11/17 13:25:22;;;;;;;;;0.75;0.75;;;;;15.35;55.13;98771.53;4980188;28;45365;-69
2022/11/17 13:27:48;;;;;;;;;0.75;0.75;;;;;15.61;55.13;98829.38;4995625;28;45352;-72
2022/11/17 13:30:25;;;;;;;;;1.00;1.00;;;;;15.52;55.29;98818.94;4979838;28;46483;-72
2022/11/17 13:32:51;;;;;;;;;1.00;0.75;;;;;15.12;55.33;98748.13;4979727;28;45394;-71
2022/11/17 13:35:28;;;;;;;;;1.00;0.75;;;;;15.62;55.97;98834.53;4994299;28;45295;-72
2022/11/17 13:38:05;;;;;;;;;3.50;1.50;;;;;14.57;55.99;98662.44;4978859;28;45552;-72
2022/11/17 13:40:32;;;;;;;;;3.33;3.00;;;;;15.75;55.79;98854.97;4980067;28;46478;-72
2022/11/17 13:42:59;;;;;;;;;3.33;2.00;;;;;14.58;56.00;98658.72;4979594;28;45461;-71
2022/11/17 13:45:25;;;;;;;;;5.00;3.67;;;;;15.02;55.75;98731.75;4979840;28;45324;-71
2022/11/17 13:47:52;;;;;;;;;0.00;0.00;;;;;15.84;55.34;98852.84;4980081;28;45610;-72